createdAt,value
2023-01-03T00:00:20.979Z,5.89
2023-01-03T00:00:52.736Z,5.89
2023-01-03T00:01:23.703Z,5.89
2023-01-03T00:01:56.820Z,5.89
2023-01-03T00:02:27.577Z,5.89
2023-01-03T00:03:00.569Z,5.89
2023-01-03T00:03:31.619Z,5.89
2023-01-03T00:04:04.851Z,5.89
2023-01-03T00:04:35.651Z,5.89
2023-01-03T00:04:51.776Z,5.89
2023-01-03T00:05:23.864Z,5.89
2023-01-03T00:05:55.692Z,5.89
2023-01-03T00:06:27.643Z,5.89
2023-01-03T00:06:59.573Z,5.89
2023-01-03T00:07:32.724Z,5.89
2023-01-03T00:08:03.651Z,5.89
2023-01-03T00:08:36.866Z,5.89
2023-01-03T00:09:07.397Z,5.89
2023-01-03T00:09:40.383Z,5.89
2023-01-03T00:10:11.964Z,5.89
2023-01-03T00:10:44.345Z,5.89
2023-01-03T00:11:15.575Z,5.89
2023-01-03T00:11:48.398Z,5.89
2023-01-03T00:12:19.698Z,5.78
2023-01-03T00:12:52.597Z,5.78
2023-01-03T00:13:23.511Z,5.78
2023-01-03T00:13:56.414Z,5.78
2023-01-03T00:14:27.434Z,5.78
2023-01-03T00:15:01.762Z,5.78
2023-01-03T00:15:31.808Z,5.78
2023-01-03T00:16:04.582Z,5.78
2023-01-03T00:16:35.637Z,5.78
2023-01-03T00:17:08.507Z,5.78
2023-01-03T00:17:39.760Z,5.78
2023-01-03T00:18:12.384Z,5.78
2023-01-03T00:18:43.525Z,5.96
2023-01-03T00:19:16.620Z,5.96
2023-01-03T00:19:47.692Z,5.84
2023-01-03T00:20:20.779Z,5.84
2023-01-03T00:20:51.621Z,5.96
2023-01-03T00:21:24.738Z,5.96
2023-01-03T00:21:55.582Z,5.84
2023-01-03T00:22:28.555Z,5.84
2023-01-03T00:22:59.651Z,5.66
2023-01-03T00:23:32.555Z,5.66
2023-01-03T00:24:03.550Z,5.84
2023-01-03T00:24:36.371Z,5.84
2023-01-03T00:25:07.964Z,5.84
2023-01-03T00:25:40.143Z,5.84
2023-01-03T00:26:11.504Z,5.66
2023-01-03T00:26:44.486Z,5.66
2023-01-03T00:27:15.406Z,5.84
2023-01-03T00:27:48.574Z,5.84
2023-01-03T00:28:19.576Z,5.84
2023-01-03T00:28:52.631Z,5.84
2023-01-03T00:29:23.611Z,5.84
2023-01-03T00:29:56.517Z,5.84
2023-01-03T00:30:28.863Z,5.84
2023-01-03T00:31:00.302Z,5.84
2023-01-03T00:31:31.620Z,5.84
2023-01-03T00:32:04.663Z,5.84
2023-01-03T00:32:35.684Z,5.84
2023-01-03T00:33:08.434Z,5.84
2023-01-03T00:33:39.597Z,5.73
2023-01-03T00:34:12.440Z,5.73
2023-01-03T00:34:43.494Z,5.73
2023-01-03T00:35:16.842Z,5.73
2023-01-03T00:35:47.680Z,5.73
2023-01-03T00:36:20.441Z,5.73
2023-01-03T00:36:51.559Z,5.73
2023-01-03T00:37:24.421Z,5.73
2023-01-03T00:37:55.941Z,5.73
2023-01-03T00:38:28.350Z,5.73
2023-01-03T00:38:59.579Z,5.73
2023-01-03T00:39:32.470Z,5.73
2023-01-03T00:40:04.073Z,5.73
2023-01-03T00:40:36.540Z,5.73
2023-01-03T00:41:07.563Z,5.73
2023-01-03T00:41:40.454Z,5.73
2023-01-03T00:42:11.469Z,5.73
2023-01-03T00:42:44.577Z,5.73
2023-01-03T00:43:15.707Z,5.73
2023-01-03T00:43:48.590Z,5.73
2023-01-03T00:44:19.545Z,5.73
2023-01-03T00:44:52.579Z,5.73
2023-01-03T00:45:25.684Z,5.91
2023-01-03T00:45:56.696Z,5.91
2023-01-03T00:46:27.701Z,5.91
2023-01-03T00:47:00.479Z,5.91
2023-01-03T00:47:31.719Z,5.86
2023-01-03T00:48:04.647Z,5.86
2023-01-03T00:48:35.638Z,5.86
2023-01-03T00:49:08.455Z,5.86
2023-01-03T00:49:39.565Z,5.86
2023-01-03T00:50:12.707Z,5.86
2023-01-03T00:50:43.645Z,5.86
2023-01-03T00:51:16.381Z,5.86
2023-01-03T00:51:47.495Z,5.86
2023-01-03T00:52:20.608Z,5.86
2023-01-03T00:52:51.631Z,5.86
2023-01-03T00:53:24.304Z,5.86
2023-01-03T00:53:55.596Z,5.86
2023-01-03T00:54:28.506Z,5.86
2023-01-03T00:54:59.673Z,5.86
2023-01-03T00:55:32.670Z,5.86
2023-01-03T00:56:03.676Z,5.86
2023-01-03T00:56:36.863Z,5.86
2023-01-03T00:57:07.489Z,5.75
2023-01-03T00:57:40.511Z,5.75
2023-01-03T00:58:11.580Z,5.75
2023-01-03T00:58:44.596Z,5.75
2023-01-03T00:59:15.551Z,5.75
2023-01-03T00:59:48.560Z,5.75
2023-01-03T01:00:21.318Z,5.75
2023-01-03T01:00:52.531Z,5.75
2023-01-03T01:01:23.798Z,5.75
2023-01-03T01:01:56.779Z,5.75
2023-01-03T01:02:27.795Z,5.75
2023-01-03T01:03:00.843Z,5.75
2023-01-03T01:03:31.718Z,5.75
2023-01-03T01:04:04.587Z,5.75
2023-01-03T01:04:35.605Z,5.75
2023-01-03T01:05:08.538Z,5.75
2023-01-03T01:05:39.464Z,5.75
2023-01-03T01:06:12.459Z,5.75
2023-01-03T01:06:43.642Z,5.75
2023-01-03T01:07:16.696Z,5.75
2023-01-03T01:07:47.557Z,5.75
2023-01-03T01:08:20.366Z,5.75
2023-01-03T01:08:51.695Z,5.75
2023-01-03T01:09:24.557Z,5.75
2023-01-03T01:09:55.503Z,5.64
2023-01-03T01:10:28.916Z,5.64
2023-01-03T01:10:59.750Z,5.64
2023-01-03T01:11:32.196Z,5.64
2023-01-03T01:12:03.674Z,5.64
2023-01-03T01:12:36.885Z,5.64
2023-01-03T01:13:07.461Z,5.64
2023-01-03T01:13:23.797Z,5.64
2023-01-03T01:13:55.736Z,5.64
2023-01-03T01:14:27.575Z,5.64
2023-01-03T01:15:01.686Z,5.64
2023-01-03T01:15:31.787Z,5.64
2023-01-03T01:16:04.555Z,5.64
2023-01-03T01:16:35.631Z,5.64
2023-01-03T01:17:08.581Z,5.64
2023-01-03T01:17:39.779Z,5.64
2023-01-03T01:18:12.426Z,5.64
2023-01-03T01:18:43.604Z,5.64
2023-01-03T01:19:16.611Z,5.64
2023-01-03T01:19:47.562Z,5.64
2023-01-03T01:20:20.840Z,5.64
2023-01-03T01:20:51.695Z,5.64
2023-01-03T01:21:24.299Z,5.64
2023-01-03T01:21:55.536Z,5.64
2023-01-03T01:22:28.575Z,5.64
2023-01-03T01:22:59.628Z,5.53
2023-01-03T01:23:32.415Z,5.53
2023-01-03T01:24:03.586Z,5.53
2023-01-03T01:24:36.705Z,5.53
2023-01-03T01:25:07.799Z,5.53
2023-01-03T01:25:40.449Z,5.53
2023-01-03T01:26:11.684Z,5.53
2023-01-03T01:26:44.504Z,5.53
2023-01-03T01:27:15.502Z,5.53
2023-01-03T01:27:48.558Z,5.53
2023-01-03T01:28:19.670Z,5.53
2023-01-03T01:28:52.496Z,5.53
2023-01-03T01:29:23.558Z,5.53
2023-01-03T01:29:56.614Z,5.53
2023-01-03T01:30:28.821Z,5.53
2023-01-03T01:31:00.682Z,5.53
2023-01-03T01:31:31.673Z,5.53
2023-01-03T01:32:04.648Z,5.53
2023-01-03T01:32:35.839Z,5.53
2023-01-03T01:33:08.430Z,5.53
2023-01-03T01:33:39.552Z,5.53
2023-01-03T01:34:12.596Z,5.53
2023-01-03T01:34:43.494Z,5.53
2023-01-03T01:35:16.671Z,5.53
2023-01-03T01:35:47.584Z,5.53
2023-01-03T01:36:20.453Z,5.53
2023-01-03T01:36:51.610Z,5.53
2023-01-03T01:37:24.534Z,5.53
2023-01-03T01:37:55.650Z,5.53
2023-01-03T01:38:28.502Z,5.53
2023-01-03T01:38:59.651Z,5.53
2023-01-03T01:39:32.588Z,5.53
2023-01-03T01:40:04.064Z,5.53
2023-01-03T01:40:36.760Z,5.53
2023-01-03T01:41:07.712Z,5.53
2023-01-03T01:41:40.462Z,5.53
2023-01-03T01:42:16.555Z,5.53
2023-01-03T01:42:44.466Z,5.53
2023-01-03T01:43:15.678Z,5.53
2023-01-03T01:43:48.547Z,5.53
2023-01-03T01:44:19.502Z,5.64
2023-01-03T01:44:52.445Z,5.64
2023-01-03T01:45:24.799Z,5.64
2023-01-03T01:45:56.677Z,5.64
2023-01-03T01:46:27.694Z,5.53
2023-01-03T01:47:00.434Z,5.53
2023-01-03T01:47:31.618Z,5.69
2023-01-03T01:48:04.436Z,5.69
2023-01-03T01:48:35.591Z,5.69
2023-01-03T01:49:08.669Z,5.69
2023-01-03T01:49:39.558Z,5.81
2023-01-03T01:50:12.697Z,5.81
2023-01-03T01:50:43.643Z,5.69
2023-01-03T01:51:16.351Z,5.69
2023-01-03T01:51:47.557Z,5.69
2023-01-03T01:52:20.488Z,5.69
2023-01-03T01:52:51.708Z,5.81
2023-01-03T01:53:24.364Z,5.81
2023-01-03T01:53:55.598Z,5.81
2023-01-03T01:54:28.350Z,5.81
2023-01-03T01:54:59.710Z,5.81
2023-01-03T01:55:32.881Z,5.81
2023-01-03T01:56:03.702Z,5.64
2023-01-03T01:56:36.505Z,5.64
2023-01-03T01:57:07.552Z,5.81
2023-01-03T01:57:40.657Z,5.81
2023-01-03T01:58:11.676Z,5.81
2023-01-03T01:58:44.399Z,5.81
2023-01-03T01:59:15.623Z,5.81
2023-01-03T01:59:48.342Z,5.81
2023-01-03T02:00:20.828Z,5.81
2023-01-03T02:00:52.488Z,5.81
2023-01-03T02:01:23.738Z,5.64
2023-01-03T02:01:56.522Z,5.64
2023-01-03T02:02:27.686Z,5.81
2023-01-03T02:03:00.558Z,5.81
2023-01-03T02:03:31.697Z,5.81
2023-01-03T02:04:04.563Z,5.81
2023-01-03T02:04:35.593Z,5.81
2023-01-03T02:05:08.743Z,5.81
2023-01-03T02:05:39.684Z,5.81
2023-01-03T02:06:12.512Z,5.81
2023-01-03T02:06:43.628Z,5.81
2023-01-03T02:07:16.573Z,5.81
2023-01-03T02:07:47.613Z,5.81
2023-01-03T02:08:20.445Z,5.81
2023-01-03T02:08:51.654Z,5.81
2023-01-03T02:09:24.501Z,5.81
2023-01-03T02:09:55.440Z,5.81
2023-01-03T02:10:28.814Z,5.81
2023-01-03T02:10:59.666Z,5.69
2023-01-03T02:11:32.425Z,5.69
2023-01-03T02:12:03.539Z,5.69
2023-01-03T02:12:36.922Z,5.69
2023-01-03T02:13:07.669Z,5.69
2023-01-03T02:13:40.584Z,5.69
2023-01-03T02:14:11.628Z,5.69
2023-01-03T02:14:44.451Z,5.69
2023-01-03T02:15:16.556Z,5.69
2023-01-03T02:15:48.675Z,5.69
2023-01-03T02:16:19.813Z,5.69
2023-01-03T02:16:52.535Z,5.69
2023-01-03T02:17:23.652Z,5.69
2023-01-03T02:17:56.628Z,5.69
2023-01-03T02:18:27.656Z,5.69
2023-01-03T02:19:00.403Z,5.69
2023-01-03T02:19:31.647Z,5.58
2023-01-03T02:20:04.931Z,5.58
2023-01-03T02:20:35.783Z,5.58
2023-01-03T02:21:08.566Z,5.58
2023-01-03T02:21:39.638Z,5.58
2023-01-03T02:22:12.667Z,5.58
2023-01-03T02:22:43.627Z,5.58
2023-01-03T02:23:16.302Z,5.58
2023-01-03T02:23:47.632Z,5.58
2023-01-03T02:24:20.455Z,5.58
2023-01-03T02:24:51.754Z,5.58
2023-01-03T02:25:24.689Z,5.58
2023-01-03T02:25:55.732Z,5.58
2023-01-03T02:26:28.285Z,5.58
2023-01-03T02:26:59.597Z,5.53
2023-01-03T02:27:32.604Z,5.53
2023-01-03T02:28:03.691Z,5.53
2023-01-03T02:28:36.730Z,5.53
2023-01-03T02:29:07.664Z,5.53
2023-01-03T02:29:40.543Z,5.53
2023-01-03T02:30:12.572Z,5.53
2023-01-03T02:30:44.515Z,5.53
2023-01-03T02:31:15.791Z,5.53
2023-01-03T02:31:48.593Z,5.53
2023-01-03T02:32:19.604Z,5.53
2023-01-03T02:32:52.494Z,5.53
2023-01-03T02:33:23.714Z,5.53
2023-01-03T02:33:56.407Z,5.53
2023-01-03T02:34:27.574Z,5.53
2023-01-03T02:35:00.838Z,5.53
2023-01-03T02:35:31.570Z,5.53
2023-01-03T02:36:04.563Z,5.53
2023-01-03T02:36:35.637Z,5.53
2023-01-03T02:37:08.601Z,5.53
2023-01-03T02:37:39.558Z,5.53
2023-01-03T02:38:12.513Z,5.53
2023-01-03T02:38:43.617Z,5.43
2023-01-03T02:39:21.910Z,5.43
2023-01-03T02:39:47.542Z,5.53
2023-01-03T02:40:20.801Z,5.53
2023-01-03T02:40:51.582Z,5.43
2023-01-03T02:41:24.465Z,5.43
2023-01-03T02:41:55.630Z,5.43
2023-01-03T02:42:28.592Z,5.43
2023-01-03T02:42:59.497Z,5.43
2023-01-03T02:43:32.558Z,5.43
2023-01-03T02:44:03.592Z,5.43
2023-01-03T02:44:36.838Z,5.43
2023-01-03T02:45:08.738Z,5.43
2023-01-03T02:45:40.820Z,5.43
2023-01-03T02:46:11.786Z,5.32
2023-01-03T02:46:44.456Z,5.32
2023-01-03T02:47:15.699Z,5.32
2023-01-03T02:47:48.819Z,5.32
2023-01-03T02:48:19.515Z,5.32
2023-01-03T02:48:52.488Z,5.32
2023-01-03T02:49:23.745Z,5.32
2023-01-03T02:49:56.526Z,5.32
2023-01-03T02:50:27.931Z,5.32
2023-01-03T02:51:00.524Z,5.32
2023-01-03T02:51:31.726Z,5.20
2023-01-03T02:52:04.465Z,5.20
2023-01-03T02:52:35.638Z,5.32
2023-01-03T02:53:08.701Z,5.32
2023-01-03T02:53:39.674Z,5.20
2023-01-03T02:54:12.471Z,5.20
2023-01-03T02:54:43.629Z,5.20
2023-01-03T02:55:16.934Z,5.20
2023-01-03T02:55:47.571Z,5.20
2023-01-03T02:56:20.510Z,5.20
2023-01-03T02:56:51.608Z,5.20
2023-01-03T02:57:24.653Z,5.20
2023-01-03T02:57:55.536Z,5.20
2023-01-03T02:58:28.566Z,5.20
2023-01-03T02:58:59.631Z,5.20
2023-01-03T02:59:32.255Z,5.20
2023-01-03T03:00:05.362Z,5.20
2023-01-03T03:00:36.594Z,5.20
2023-01-03T03:01:07.738Z,5.20
2023-01-03T03:01:40.676Z,5.20
2023-01-03T03:02:11.862Z,5.36
2023-01-03T03:02:44.796Z,5.36
2023-01-03T03:03:15.708Z,5.36
2023-01-03T03:03:48.463Z,5.36
2023-01-03T03:04:19.627Z,5.36
2023-01-03T03:04:52.457Z,5.36
2023-01-03T03:05:23.999Z,5.36
2023-01-03T03:05:56.481Z,5.36
2023-01-03T03:06:27.448Z,5.36
2023-01-03T03:07:00.495Z,5.36
2023-01-03T03:07:31.718Z,5.36
2023-01-03T03:08:04.687Z,5.36
2023-01-03T03:08:35.594Z,5.36
2023-01-03T03:09:08.499Z,5.36
2023-01-03T03:09:39.742Z,5.36
2023-01-03T03:10:12.622Z,5.36
2023-01-03T03:10:43.685Z,5.26
2023-01-03T03:11:16.552Z,5.26
2023-01-03T03:11:47.745Z,5.26
2023-01-03T03:12:20.498Z,5.26
2023-01-03T03:12:51.688Z,5.26
2023-01-03T03:13:24.565Z,5.26
2023-01-03T03:13:55.802Z,5.26
2023-01-03T03:14:28.333Z,5.26
2023-01-03T03:14:59.604Z,5.26
2023-01-03T03:15:33.931Z,5.26
2023-01-03T03:16:03.507Z,5.26
2023-01-03T03:16:36.713Z,5.26
2023-01-03T03:17:07.728Z,5.26
2023-01-03T03:17:40.274Z,5.26
2023-01-03T03:18:11.632Z,5.21
2023-01-03T03:18:44.617Z,5.21
2023-01-03T03:19:15.740Z,5.21
2023-01-03T03:19:48.347Z,5.21
2023-01-03T03:20:20.116Z,5.21
2023-01-03T03:20:52.465Z,5.21
2023-01-03T03:21:23.650Z,5.21
2023-01-03T03:21:56.347Z,5.21
2023-01-03T03:22:27.658Z,5.21
2023-01-03T03:23:00.580Z,5.21
2023-01-03T03:23:31.653Z,5.10
2023-01-03T03:24:04.290Z,5.10
2023-01-03T03:24:35.762Z,5.10
2023-01-03T03:25:08.574Z,5.10
2023-01-03T03:25:39.602Z,5.10
2023-01-03T03:26:12.518Z,5.10
2023-01-03T03:26:43.851Z,5.10
2023-01-03T03:27:16.486Z,5.10
2023-01-03T03:27:47.809Z,4.99
2023-01-03T03:28:20.355Z,4.99
2023-01-03T03:28:51.733Z,4.99
2023-01-03T03:29:24.391Z,4.99
2023-01-03T03:29:55.709Z,4.99
2023-01-03T03:30:29.539Z,4.99
2023-01-03T03:30:59.875Z,4.99
2023-01-03T03:31:32.565Z,4.99
2023-01-03T03:32:03.831Z,5.04
2023-01-03T03:32:36.718Z,5.04
2023-01-03T03:33:07.719Z,5.04
2023-01-03T03:33:40.429Z,5.04
2023-01-03T03:34:11.794Z,5.04
2023-01-03T03:34:44.467Z,5.04
2023-01-03T03:35:16.136Z,5.04
2023-01-03T03:35:48.567Z,5.04
2023-01-03T03:36:19.636Z,5.04
2023-01-03T03:36:52.480Z,5.04
2023-01-03T03:37:23.727Z,5.04
2023-01-03T03:37:56.534Z,5.04
2023-01-03T03:38:27.619Z,5.04
2023-01-03T03:39:00.574Z,5.04
2023-01-03T03:39:31.887Z,4.93
2023-01-03T03:40:04.487Z,4.93
2023-01-03T03:40:35.657Z,5.04
2023-01-03T03:41:08.422Z,5.04
2023-01-03T03:41:39.543Z,4.93
2023-01-03T03:42:12.378Z,4.93
2023-01-03T03:42:43.757Z,4.93
2023-01-03T03:43:16.646Z,4.93
2023-01-03T03:43:47.685Z,4.93
2023-01-03T03:44:20.405Z,4.93
2023-01-03T03:44:51.734Z,4.93
2023-01-03T03:45:25.481Z,4.93
2023-01-03T03:45:55.754Z,4.93
2023-01-03T03:46:28.582Z,4.93
2023-01-03T03:47:04.101Z,4.88
2023-01-03T03:47:32.509Z,4.88
2023-01-03T03:48:03.655Z,4.88
2023-01-03T03:48:36.677Z,4.88
2023-01-03T03:49:07.655Z,4.72
2023-01-03T03:49:40.392Z,4.72
2023-01-03T03:50:12.072Z,4.72
2023-01-03T03:50:44.360Z,4.72
2023-01-03T03:51:15.594Z,4.72
2023-01-03T03:51:48.410Z,4.72
2023-01-03T03:52:19.745Z,4.72
2023-01-03T03:52:52.381Z,4.72
2023-01-03T03:53:23.651Z,4.61
2023-01-03T03:53:56.587Z,4.61
2023-01-03T03:54:27.545Z,4.61
2023-01-03T03:55:00.760Z,4.61
2023-01-03T03:55:31.791Z,4.77
2023-01-03T03:56:04.279Z,4.77
2023-01-03T03:56:35.658Z,4.77
2023-01-03T03:57:08.435Z,4.77
2023-01-03T03:57:39.717Z,4.66
2023-01-03T03:58:12.244Z,4.66
2023-01-03T03:58:43.566Z,4.66
2023-01-03T03:59:16.377Z,4.66
2023-01-03T03:59:47.620Z,4.66
2023-01-03T04:00:21.577Z,4.66
2023-01-03T04:00:51.749Z,4.66
2023-01-03T04:01:24.598Z,4.66
2023-01-03T04:01:55.743Z,4.66
2023-01-03T04:02:28.543Z,4.66
2023-01-03T04:02:59.935Z,4.54
2023-01-03T04:03:32.526Z,4.54
2023-01-03T04:04:03.803Z,4.54
2023-01-03T04:04:36.662Z,4.54
2023-01-03T04:05:07.793Z,4.54
2023-01-03T04:05:23.879Z,4.54
2023-01-03T04:05:55.914Z,4.44
2023-01-03T04:06:27.641Z,4.44
2023-01-03T04:06:59.760Z,4.44
2023-01-03T04:07:31.630Z,4.44
2023-01-03T04:08:04.404Z,4.44
2023-01-03T04:08:35.709Z,4.44
2023-01-03T04:09:08.422Z,4.39
2023-01-03T04:09:39.589Z,4.39
2023-01-03T04:10:12.947Z,4.44
2023-01-03T04:10:43.740Z,4.44
2023-01-03T04:11:16.427Z,4.39
2023-01-03T04:11:47.686Z,4.39
2023-01-03T04:12:20.617Z,4.39
2023-01-03T04:12:51.804Z,4.39
2023-01-03T04:13:24.348Z,4.39
2023-01-03T04:13:55.621Z,4.39
2023-01-03T04:14:28.416Z,4.28
2023-01-03T04:14:59.577Z,4.28
2023-01-03T04:15:33.647Z,4.44
2023-01-03T04:16:03.858Z,4.44
2023-01-03T04:16:36.755Z,4.44
2023-01-03T04:17:07.662Z,4.44
2023-01-03T04:17:40.471Z,4.44
2023-01-03T04:18:11.801Z,4.44
2023-01-03T04:18:44.230Z,4.44
2023-01-03T04:19:15.655Z,4.44
2023-01-03T04:19:48.339Z,4.33
2023-01-03T04:20:20.026Z,4.33
2023-01-03T04:20:52.422Z,4.48
2023-01-03T04:21:23.709Z,4.48
2023-01-03T04:21:56.366Z,4.48
2023-01-03T04:22:27.600Z,4.48
2023-01-03T04:23:00.435Z,4.48
2023-01-03T04:23:31.685Z,4.48
2023-01-03T04:24:04.242Z,4.48
2023-01-03T04:24:35.598Z,4.48
2023-01-03T04:24:51.795Z,4.48
2023-01-03T04:25:23.993Z,4.48
2023-01-03T04:25:55.680Z,4.48
2023-01-03T04:26:27.760Z,4.48
2023-01-03T04:26:59.538Z,4.48
2023-01-03T04:27:32.510Z,4.48
2023-01-03T04:28:03.737Z,4.48
2023-01-03T04:28:36.366Z,4.48
2023-01-03T04:29:07.690Z,4.48
2023-01-03T04:29:23.846Z,4.36
2023-01-03T04:29:55.689Z,4.36
2023-01-03T04:30:28.929Z,4.36
2023-01-03T04:30:59.957Z,4.36
2023-01-03T04:31:31.788Z,4.36
2023-01-03T04:32:04.465Z,4.36
2023-01-03T04:32:35.809Z,4.36
2023-01-03T04:33:08.663Z,4.36
2023-01-03T04:33:39.649Z,4.36
2023-01-03T04:34:12.663Z,4.36
2023-01-03T04:34:43.777Z,4.21
2023-01-03T04:35:16.813Z,4.21
2023-01-03T04:35:47.719Z,4.11
2023-01-03T04:36:20.772Z,4.11
2023-01-03T04:36:51.555Z,4.11
2023-01-03T04:37:24.584Z,4.11
2023-01-03T04:37:55.709Z,4.11
2023-01-03T04:38:28.742Z,4.11
2023-01-03T04:38:59.736Z,4.11
2023-01-03T04:39:32.610Z,4.11
2023-01-03T04:40:03.953Z,4.11
2023-01-03T04:40:36.857Z,4.11
2023-01-03T04:41:07.753Z,4.06
2023-01-03T04:41:40.657Z,4.06
2023-01-03T04:42:11.537Z,4.21
2023-01-03T04:42:44.404Z,4.21
2023-01-03T04:43:15.732Z,4.21
2023-01-03T04:43:48.860Z,4.21
2023-01-03T04:44:19.659Z,4.21
2023-01-03T04:44:52.499Z,4.21
2023-01-03T04:45:24.983Z,4.21
2023-01-03T04:45:56.841Z,4.21
2023-01-03T04:46:27.763Z,4.10
2023-01-03T04:47:00.493Z,4.10
2023-01-03T04:47:31.844Z,4.10
2023-01-03T04:48:04.581Z,4.10
2023-01-03T04:48:35.662Z,4.10
2023-01-03T04:49:08.538Z,4.10
2023-01-03T04:49:39.811Z,4.10
2023-01-03T04:50:12.795Z,4.10
2023-01-03T04:50:43.672Z,4.10
2023-01-03T04:51:16.740Z,4.10
2023-01-03T04:51:47.723Z,4.10
2023-01-03T04:52:20.707Z,4.10
2023-01-03T04:52:51.820Z,4.10
2023-01-03T04:53:24.591Z,4.10
2023-01-03T04:53:55.768Z,3.99
2023-01-03T04:54:28.619Z,3.99
2023-01-03T04:54:59.828Z,3.99
2023-01-03T04:55:33.043Z,3.99
2023-01-03T04:56:03.776Z,3.99
2023-01-03T04:56:36.914Z,3.99
2023-01-03T04:57:07.704Z,4.15
2023-01-03T04:57:40.490Z,4.15
2023-01-03T04:58:11.729Z,4.15
2023-01-03T04:58:44.638Z,4.15
2023-01-03T04:59:15.655Z,4.03
2023-01-03T04:59:48.512Z,4.03
2023-01-03T05:00:20.928Z,4.03
2023-01-03T05:00:52.662Z,4.03
2023-01-03T05:01:23.767Z,4.19
2023-01-03T05:01:56.922Z,4.19
2023-01-03T05:02:27.842Z,4.19
2023-01-03T05:03:00.740Z,4.19
2023-01-03T05:03:31.749Z,4.03
2023-01-03T05:04:04.555Z,4.03
2023-01-03T05:04:35.631Z,4.19
2023-01-03T05:04:51.735Z,4.19
2023-01-03T05:05:23.869Z,4.19
2023-01-03T05:05:55.680Z,4.19
2023-01-03T05:06:27.626Z,4.19
2023-01-03T05:06:59.682Z,4.08
2023-01-03T05:07:31.617Z,4.08
2023-01-03T05:08:03.660Z,4.08
2023-01-03T05:08:35.760Z,4.08
2023-01-03T05:09:07.564Z,4.19
2023-01-03T05:09:24.584Z,4.19
2023-01-03T05:09:55.766Z,4.08
2023-01-03T05:10:28.898Z,4.08
2023-01-03T05:10:59.717Z,4.08
2023-01-03T05:11:32.644Z,4.08
2023-01-03T05:12:03.705Z,4.08
2023-01-03T05:12:37.027Z,4.08
2023-01-03T05:13:07.769Z,4.08
2023-01-03T05:13:40.535Z,4.08
2023-01-03T05:14:14.412Z,4.23
2023-01-03T05:14:44.522Z,4.23
2023-01-03T05:15:16.778Z,4.23
2023-01-03T05:15:48.916Z,4.23
2023-01-03T05:16:19.894Z,4.23
2023-01-03T05:16:52.649Z,4.23
2023-01-03T05:17:23.608Z,4.23
2023-01-03T05:17:56.785Z,4.23
2023-01-03T05:18:27.732Z,4.23
2023-01-03T05:19:00.640Z,4.23
2023-01-03T05:19:31.648Z,4.23
2023-01-03T05:20:04.865Z,4.23
2023-01-03T05:20:35.847Z,4.23
2023-01-03T05:21:08.501Z,4.23
2023-01-03T05:21:39.720Z,4.23
2023-01-03T05:22:12.727Z,4.23
2023-01-03T05:22:43.930Z,4.23
2023-01-03T05:23:16.591Z,4.23
2023-01-03T05:23:47.801Z,4.23
2023-01-03T05:24:21.283Z,4.23
2023-01-03T05:24:51.657Z,4.18
2023-01-03T05:25:24.792Z,4.18
2023-01-03T05:25:55.667Z,4.23
2023-01-03T05:26:28.538Z,4.23
2023-01-03T05:26:59.626Z,4.23
2023-01-03T05:27:32.767Z,4.23
2023-01-03T05:28:03.772Z,4.18
2023-01-03T05:28:36.595Z,4.18
2023-01-03T05:29:07.689Z,4.18
2023-01-03T05:29:40.550Z,4.18
2023-01-03T05:30:12.557Z,4.18
2023-01-03T05:30:44.696Z,4.18
2023-01-03T05:31:15.722Z,4.18
2023-01-03T05:31:48.771Z,4.18
2023-01-03T05:32:19.828Z,4.18
2023-01-03T05:32:52.632Z,4.18
2023-01-03T05:33:23.661Z,4.18
2023-01-03T05:33:56.662Z,4.18
2023-01-03T05:34:27.634Z,4.18
2023-01-03T05:35:00.970Z,4.18
2023-01-03T05:35:31.836Z,4.08
2023-01-03T05:36:04.495Z,4.08
2023-01-03T05:36:35.786Z,4.18
2023-01-03T05:37:08.686Z,4.18
2023-01-03T05:37:39.551Z,4.08
2023-01-03T05:38:12.670Z,4.08
2023-01-03T05:38:43.774Z,4.08
2023-01-03T05:39:16.608Z,4.08
2023-01-03T05:39:47.708Z,4.08
2023-01-03T05:40:20.824Z,4.08
2023-01-03T05:40:51.746Z,4.08
2023-01-03T05:41:24.414Z,4.08
2023-01-03T05:41:55.720Z,4.08
2023-01-03T05:42:28.749Z,4.08
2023-01-03T05:42:59.765Z,4.08
2023-01-03T05:43:32.438Z,4.08
2023-01-03T05:44:03.749Z,4.08
2023-01-03T05:44:36.871Z,4.08
2023-01-03T05:45:08.668Z,4.08
2023-01-03T05:45:40.690Z,4.08
2023-01-03T05:46:11.890Z,3.97
2023-01-03T05:46:44.639Z,3.97
2023-01-03T05:47:15.650Z,3.97
2023-01-03T05:47:48.897Z,3.97
2023-01-03T05:48:19.748Z,3.97
2023-01-03T05:48:52.664Z,3.97
2023-01-03T05:49:23.694Z,3.97
2023-01-03T05:49:56.528Z,3.97
2023-01-03T05:50:27.929Z,3.97
2023-01-03T05:51:00.437Z,3.97
2023-01-03T05:51:31.719Z,3.97
2023-01-03T05:52:04.742Z,3.97
2023-01-03T05:52:35.604Z,3.97
2023-01-03T05:53:08.646Z,3.97
2023-01-03T05:53:39.802Z,3.97
2023-01-03T05:54:12.651Z,3.97
2023-01-03T05:54:43.596Z,3.97
2023-01-03T05:55:16.910Z,3.97
2023-01-03T05:55:47.765Z,4.12
2023-01-03T05:56:20.426Z,4.12
2023-01-03T05:56:51.668Z,4.12
2023-01-03T05:57:24.805Z,4.12
2023-01-03T05:57:55.732Z,4.12
2023-01-03T05:58:28.531Z,4.12
2023-01-03T05:58:59.740Z,4.12
2023-01-03T05:59:32.694Z,4.12
2023-01-03T06:00:05.194Z,4.23
2023-01-03T06:00:36.882Z,4.23
2023-01-03T06:01:07.815Z,4.23
2023-01-03T06:01:40.585Z,4.23
2023-01-03T06:02:11.776Z,4.23
2023-01-03T06:02:44.807Z,4.23
2023-01-03T06:03:15.924Z,4.23
2023-01-03T06:03:48.663Z,4.23
2023-01-03T06:04:19.814Z,4.23
2023-01-03T06:04:52.641Z,4.23
2023-01-03T06:05:24.000Z,4.23
2023-01-03T06:05:56.484Z,4.23
2023-01-03T06:06:27.793Z,4.08
2023-01-03T06:07:01.055Z,4.08
2023-01-03T06:07:31.824Z,4.08
2023-01-03T06:08:04.683Z,4.08
2023-01-03T06:08:35.708Z,4.18
2023-01-03T06:09:08.513Z,4.18
2023-01-03T06:09:39.655Z,4.18
2023-01-03T06:10:13.749Z,4.18
2023-01-03T06:10:43.717Z,4.08
2023-01-03T06:11:16.449Z,4.08
2023-01-03T06:11:47.719Z,4.18
2023-01-03T06:12:20.783Z,4.18
2023-01-03T06:12:51.653Z,4.18
2023-01-03T06:13:24.556Z,4.18
2023-01-03T06:13:55.701Z,4.18
2023-01-03T06:14:28.498Z,4.18
2023-01-03T06:14:59.729Z,4.18
2023-01-03T06:15:33.793Z,4.18
2023-01-03T06:16:03.705Z,4.08
2023-01-03T06:16:36.835Z,4.08
2023-01-03T06:17:07.707Z,4.18
2023-01-03T06:17:40.648Z,4.18
2023-01-03T06:18:11.808Z,4.18
2023-01-03T06:18:44.632Z,4.18
2023-01-03T06:19:15.704Z,4.18
2023-01-03T06:19:48.498Z,4.18
2023-01-03T06:20:19.945Z,4.18
2023-01-03T06:20:52.707Z,4.18
2023-01-03T06:21:23.867Z,4.18
2023-01-03T06:21:56.748Z,4.18
2023-01-03T06:22:27.776Z,4.08
2023-01-03T06:23:00.659Z,4.08
2023-01-03T06:23:31.796Z,4.18
2023-01-03T06:24:04.483Z,4.18
2023-01-03T06:24:35.691Z,4.08
2023-01-03T06:24:51.817Z,4.08
2023-01-03T06:25:24.107Z,4.08
2023-01-03T06:25:55.675Z,4.08
2023-01-03T06:26:27.872Z,4.08
2023-01-03T06:26:59.559Z,4.08
2023-01-03T06:27:32.807Z,4.08
2023-01-03T06:28:03.742Z,4.18
2023-01-03T06:28:36.909Z,4.18
2023-01-03T06:29:07.666Z,4.08
2023-01-03T06:29:40.440Z,4.08
2023-01-03T06:30:12.748Z,4.08
2023-01-03T06:30:44.615Z,4.08
2023-01-03T06:31:15.732Z,4.08
2023-01-03T06:31:48.480Z,4.08
2023-01-03T06:32:19.751Z,4.08
2023-01-03T06:32:52.675Z,4.08
2023-01-03T06:33:23.767Z,4.08
2023-01-03T06:33:56.566Z,4.08
2023-01-03T06:34:27.692Z,4.08
2023-01-03T06:35:00.999Z,4.08
2023-01-03T06:35:31.776Z,3.97
2023-01-03T06:36:04.513Z,3.97
2023-01-03T06:36:35.586Z,3.97
2023-01-03T06:37:08.497Z,3.97
2023-01-03T06:37:39.791Z,3.97
2023-01-03T06:38:12.469Z,3.97
2023-01-03T06:38:43.701Z,3.97
2023-01-03T06:39:16.401Z,3.97
2023-01-03T06:39:47.794Z,3.97
2023-01-03T06:40:20.845Z,3.97
2023-01-03T06:40:51.734Z,3.97
2023-01-03T06:41:24.552Z,3.97
2023-01-03T06:41:55.593Z,3.97
2023-01-03T06:42:28.535Z,3.97
2023-01-03T06:42:59.783Z,3.85
2023-01-03T06:43:32.522Z,3.85
2023-01-03T06:44:03.706Z,3.97
2023-01-03T06:44:36.864Z,3.97
2023-01-03T06:45:08.675Z,3.97
2023-01-03T06:45:40.839Z,3.97
2023-01-03T06:46:11.790Z,3.85
2023-01-03T06:46:44.648Z,3.85
2023-01-03T06:47:15.676Z,3.85
2023-01-03T06:47:49.265Z,3.85
2023-01-03T06:48:19.718Z,3.85
2023-01-03T06:48:52.542Z,3.85
2023-01-03T06:49:23.782Z,3.85
2023-01-03T06:49:57.466Z,3.85
2023-01-03T06:50:28.028Z,3.74
2023-01-03T06:51:00.507Z,3.74
2023-01-03T06:51:31.770Z,3.74
2023-01-03T06:52:04.542Z,3.74
2023-01-03T06:52:35.622Z,3.74
2023-01-03T06:53:08.513Z,3.74
2023-01-03T06:53:39.719Z,3.74
2023-01-03T06:54:12.488Z,3.74
2023-01-03T06:54:43.679Z,3.74
2023-01-03T06:55:16.754Z,3.74
2023-01-03T06:55:54.378Z,3.74
2023-01-03T06:56:20.411Z,3.74
2023-01-03T06:56:51.684Z,3.69
2023-01-03T06:57:26.356Z,3.69
2023-01-03T06:57:55.584Z,3.69
2023-01-03T06:58:28.709Z,3.69
2023-01-03T06:58:59.852Z,3.69
2023-01-03T06:59:32.754Z,3.69
2023-01-03T07:00:05.173Z,3.69
2023-01-03T07:00:36.943Z,3.69
2023-01-03T07:01:07.899Z,3.58
2023-01-03T07:01:40.586Z,3.58
2023-01-03T07:02:11.756Z,3.58
2023-01-03T07:02:44.918Z,3.58
2023-01-03T07:03:15.873Z,3.58
2023-01-03T07:03:48.436Z,3.58